Time;durP1;ratioP1;P1;durP2;ratioP2;P2;SDS_P1;SDS_P2;PMS_P1;PMS_P2;Temp;Humidity;BMP_temperature;BMP_pressure;BME280_temperature;BME280_humidity;BME280_pressure;Samples;Min_cycle;Max_cycle;Signal;HPM_P1;HPM_P2
2022/03/19 00:00:35;;;;;;;63.97;34.42;;;;;;;5.38;64.40;98312.78;5028521;28;20751;-74
2022/03/19 00:03:02;;;;;;;66.03;34.25;;;;;;;5.37;64.55;98319.22;5046321;28;20055;-75
2022/03/19 00:05:30;;;;;;;63.92;33.88;;;;;;;5.35;64.76;98310.56;5069205;28;20044;-74
2022/03/19 00:07:57;;;;;;;65.38;35.60;;;;;;;5.38;64.85;98310.09;5069379;28;20044;-75
2022/03/19 00:10:24;;;;;;;64.57;35.85;;;;;;;5.28;65.62;98314.44;5067877;28;20045;-75
2022/03/19 00:12:51;;;;;;;71.97;38.08;;;;;;;5.26;65.43;98328.16;5069052;28;20143;-74
2022/03/19 00:15:17;;;;;;;66.40;36.33;;;;;;;5.29;66.08;98314.19;5068478;28;20817;-74
2022/03/19 00:17:44;;;;;;;74.20;39.63;;;;;;;5.26;66.75;98320.06;5068877;28;20055;-74
2022/03/19 00:20:12;;;;;;;74.03;38.97;;;;;;;5.28;66.73;98306.34;5068674;28;20047;-74
2022/03/19 00:22:40;;;;;;;72.40;39.05;;;;;;;5.26;66.93;98313.84;5068192;28;20056;-74
2022/03/19 00:25:09;;;;;;;72.60;38.33;;;;;;;5.25;67.18;98304.91;5068492;28;20387;-74
2022/03/19 00:27:36;;;;;;;78.18;41.10;;;;;;;5.30;67.45;98307.72;5068138;28;20052;-74
2022/03/19 00:30:02;;;;;;;75.88;39.85;;;;;;;5.34;67.26;98303.50;5068770;28;20052;-75
2022/03/19 00:32:29;;;;;;;77.95;42.17;;;;;;;5.34;67.56;98298.09;5062436;28;20557;-74
2022/03/19 00:34:55;;;;;;;84.45;43.28;;;;;;;5.35;67.62;98294.34;5048390;28;20049;-74
2022/03/19 00:37:23;;;;;;;76.07;41.33;;;;;;;5.33;67.08;98301.88;5047753;28;20060;-74
2022/03/19 00:39:51;;;;;;;79.20;42.85;;;;;;;5.35;67.89;98302.44;5048579;28;20057;-74
2022/03/19 00:42:18;;;;;;;74.38;41.40;;;;;;;5.35;67.65;98305.16;5048532;28;20057;-74
2022/03/19 00:44:45;;;;;;;83.10;43.45;;;;;;;5.36;68.08;98305.97;5047858;28;20053;-74
2022/03/19 00:47:11;;;;;;;84.65;43.80;;;;;;;5.38;67.99;98298.47;5048097;28;20057;-74
2022/03/19 00:49:38;;;;;;;79.78;42.80;;;;;;;5.36;68.20;98301.38;5047507;28;20546;-76
2022/03/19 00:52:05;;;;;;;83.97;44.53;;;;;;;5.28;68.13;98292.84;5048194;28;20751;-74
2022/03/19 00:54:31;;;;;;;82.68;43.00;;;;;;;5.27;68.47;98289.28;5047569;28;20052;-74
2022/03/19 00:56:59;;;;;;;86.50;44.40;;;;;;;5.23;68.31;98293.53;5047964;28;20049;-75
2022/03/19 00:59:26;;;;;;;81.07;43.40;;;;;;;5.23;68.25;98290.84;5047050;28;20044;-74
2022/03/19 01:01:52;;;;;;;87.28;45.92;;;;;;;5.21;68.42;98284.84;5048303;28;20049;-74
2022/03/19 01:04:19;;;;;;;85.68;43.65;;;;;;;5.23;68.00;98282.75;5065152;28;20367;-74
2022/03/19 01:06:45;;;;;;;81.55;42.95;;;;;;;5.19;67.95;98281.56;5067634;28;20056;-74
2022/03/19 01:09:12;;;;;;;83.20;43.38;;;;;;;5.21;67.79;98282.13;5066951;28;20056;-74
2022/03/19 01:11:38;;;;;;;78.35;42.67;;;;;;;5.22;67.57;98273.00;5065710;28;20051;-74
2022/03/19 01:14:07;;;;;;;86.10;43.47;;;;;;;5.26;67.27;98268.75;5067876;28;20055;-74
2022/03/19 01:16:34;;;;;;;83.93;44.55;;;;;;;5.29;67.40;98272.88;5067319;28;20055;-74
2022/03/19 01:19:00;;;;;;;81.78;41.78;;;;;;;5.31;66.94;98260.75;5067971;28;20052;-74
2022/03/19 01:21:27;;;;;;;85.75;42.22;;;;;;;5.22;67.05;98262.19;5067309;28;20044;-74
2022/03/19 01:23:53;;;;;;;82.78;43.58;;;;;;;5.21;67.11;98264.03;5068187;28;20064;-74
2022/03/19 01:26:20;;;;;;;81.15;42.78;;;;;;;5.17;67.40;98264.78;5066808;28;20059;-74
2022/03/19 01:28:47;;;;;;;80.25;42.20;;;;;;;5.12;67.48;98256.56;5067455;28;20060;-74
2022/03/19 01:31:15;;;;;;;81.90;41.53;;;;;;;5.09;67.26;98259.72;5067454;28;20410;-74
2022/03/19 01:33:41;;;;;;;83.45;42.70;;;;;;;5.14;66.98;98254.44;5051498;28;20055;-74
2022/03/19 01:36:08;;;;;;;86.25;42.85;;;;;;;5.14;66.72;98257.16;5047012;28;20053;-74
2022/03/19 01:38:34;;;;;;;80.40;42.67;;;;;;;5.14;66.73;98259.84;5047155;28;20401;-75
2022/03/19 01:41:01;;;;;;;78.88;43.30;;;;;;;5.15;66.75;98256.06;5047884;28;20057;-74
2022/03/19 01:43:28;;;;;;;80.18;43.05;;;;;;;5.08;67.09;98255.38;5046759;28;20071;-74
2022/03/19 01:45:54;;;;;;;82.57;42.75;;;;;;;5.02;67.06;98257.16;5047611;28;20041;-74
2022/03/19 01:48:22;;;;;;;86.47;42.47;;;;;;;5.02;67.52;98250.94;5046374;28;20055;-74
2022/03/19 01:50:49;;;;;;;78.15;41.30;;;;;;;4.87;68.02;98254.94;5047117;28;20061;-74
2022/03/19 01:53:15;;;;;;;79.63;41.60;;;;;;;4.85;68.45;98251.63;5046619;28;20049;-74
2022/03/19 01:55:42;;;;;;;83.53;43.25;;;;;;;4.76;67.90;98253.03;5046398;28;20215;-74
2022/03/19 01:58:09;;;;;;;83.20;43.45;;;;;;;4.70;68.30;98259.38;5046918;28;20500;-75
2022/03/19 02:00:37;;;;;;;78.43;40.88;;;;;;;4.59;68.39;98255.59;5046395;28;20040;-74
2022/03/19 02:03:04;;;;;;;80.60;41.28;;;;;;;4.57;68.46;98256.91;5054147;28;20059;-74
2022/03/19 02:05:32;;;;;;;83.03;43.53;;;;;;;4.55;68.05;98250.91;5066359;28;20044;-74
2022/03/19 02:07:59;;;;;;;83.30;42.88;;;;;;;4.48;68.58;98245.59;5067429;28;20049;-74
2022/03/19 02:10:26;;;;;;;79.25;41.20;;;;;;;4.41;68.91;98242.22;5066063;28;20410;-74
2022/03/19 02:12:55;;;;;;;78.18;41.00;;;;;;;4.34;68.56;98250.41;5066821;28;20117;-74
2022/03/19 02:15:22;;;;;;;87.22;41.75;;;;;;;4.30;68.47;98235.75;5065707;28;20097;-74
2022/03/19 02:17:48;;;;;;;81.15;42.05;;;;;;;4.23;68.78;98243.13;5058731;28;20056;-74
2022/03/19 02:20:15;;;;;;;80.00;41.17;;;;;;;4.22;68.92;98241.47;5046348;28;20060;-74
2022/03/19 02:25:34;;;;;;;84.22;41.85;;;;;;;4.13;68.94;98234.78;5045867;28;20535;-74
2022/03/19 02:25:37;;;;;;;75.03;38.90;;;;;;;3.98;69.68;98235.19;5046462;28;20071;-74
2022/03/19 02:28:04;;;;;;;65.43;30.60;;;;;;;3.93;69.76;98227.78;5045545;28;20081;-74
2022/03/19 02:30:32;;;;;;;80.97;41.08;;;;;;;3.91;69.99;98223.66;5046635;28;20049;-74
2022/03/19 02:33:00;;;;;;;82.80;40.15;;;;;;;3.87;70.06;98222.50;5052661;28;20102;-75
2022/03/19 02:35:27;;;;;;;80.65;40.40;;;;;;;3.89;69.91;98215.81;5065214;28;20060;-74
2022/03/19 02:37:54;;;;;;;82.65;40.15;;;;;;;3.80;69.83;98211.78;5066185;28;20047;-74
2022/03/19 02:40:22;;;;;;;79.72;39.95;;;;;;;3.83;70.32;98200.56;5065060;28;20048;-74
2022/03/19 02:42:51;;;;;;;75.10;38.58;;;;;;;3.82;70.11;98198.94;5066435;28;20056;-74
2022/03/19 02:45:18;;;;;;;75.50;37.60;;;;;;;3.86;69.56;98194.72;5064698;28;20546;-74
2022/03/19 02:48:00;;;;;;;74.50;37.03;;;;;;;3.86;69.70;98191.19;5066343;28;20506;-74
2022/03/19 02:50:29;;;;;;;72.03;36.03;;;;;;;3.86;68.68;98183.97;5064952;28;20039;-74
2022/03/19 02:52:56;;;;;;;74.90;36.53;;;;;;;3.90;68.82;98195.06;5065933;28;20075;-74
2022/03/19 02:55:23;;;;;;;67.97;35.55;;;;;;;3.95;68.00;98191.69;5065077;28;20048;-74
2022/03/19 02:57:51;;;;;;;66.28;34.47;;;;;;;3.98;66.98;98191.25;5065661;28;20053;-74
2022/03/19 03:00:19;;;;;;;66.68;33.63;;;;;;;3.97;66.45;98194.97;5065693;28;20056;-74
2022/03/19 03:02:45;;;;;;;69.20;33.28;;;;;;;3.96;66.34;98193.34;5057480;28;20048;-74
2022/03/19 03:05:13;;;;;;;67.68;33.10;;;;;;;3.92;65.92;98185.72;5045842;28;20052;-74
2022/03/19 03:07:40;;;;;;;66.35;32.83;;;;;;;3.82;66.19;98188.16;5045688;28;20171;-74
2022/03/19 03:10:08;;;;;;;64.05;31.77;;;;;;;3.82;65.84;98188.16;5046039;28;20053;-74
2022/03/19 03:12:35;;;;;;;63.05;32.10;;;;;;;3.81;66.20;98193.75;5045429;28;20041;-73
2022/03/19 03:15:03;;;;;;;66.65;33.60;;;;;;;3.78;66.15;98188.84;5045896;28;20049;-74
2022/03/19 03:17:30;;;;;;;59.33;30.77;;;;;;;3.72;65.68;98187.88;5045475;28;20040;-75
2022/03/19 03:19:57;;;;;;;61.33;29.73;;;;;;;3.68;65.69;98192.09;5045614;28;20069;-74
2022/03/19 03:22:23;;;;;;;56.80;29.70;;;;;;;3.69;65.26;98188.31;5045755;28;20049;-74
2022/03/19 03:24:50;;;;;;;56.70;29.02;;;;;;;3.72;65.72;98192.47;5045613;28;20053;-74
2022/03/19 03:27:16;;;;;;;57.10;29.40;;;;;;;3.73;65.61;98194.09;5045615;28;20550;-74
2022/03/19 03:29:43;;;;;;;59.55;29.63;;;;;;;3.74;64.66;98193.03;5045379;28;20067;-74
2022/03/19 03:32:11;;;;;;;63.55;30.65;;;;;;;3.70;64.65;98191.84;5045800;28;20056;-75
2022/03/19 03:34:38;;;;;;;61.72;29.58;;;;;;;3.64;65.29;98190.88;5027826;28;20791;-74
2022/03/19 03:37:04;;;;;;;59.97;30.10;;;;;;;3.58;65.67;98191.81;5029418;28;20595;-74
2022/03/19 03:39:31;;;;;;;68.13;34.45;;;;;;;3.54;65.34;98179.84;5030443;28;20049;-74
2022/03/19 03:41:57;;;;;;;60.88;30.48;;;;;;;3.52;65.48;98179.25;5048718;28;20060;-74
2022/03/19 03:44:24;;;;;;;64.85;32.08;;;;;;;3.47;65.19;98181.81;5048866;28;20053;-75
2022/03/19 03:46:50;;;;;;;58.85;29.42;;;;;;;3.48;64.98;98181.56;5036996;28;20060;-74
2022/03/19 03:49:18;;;;;;;61.08;30.00;;;;;;;3.48;64.64;98180.75;5029587;28;20045;-74
2022/03/19 03:51:45;;;;;;;55.72;27.52;;;;;;;3.49;64.77;98182.38;5028684;28;20061;-75
2022/03/19 03:54:11;;;;;;;55.75;29.20;;;;;;;3.49;64.58;98183.22;5029669;28;20053;-74
2022/03/19 03:56:38;;;;;;;56.00;29.23;;;;;;;3.45;64.40;98176.66;5028606;28;20519;-74
2022/03/19 03:59:05;;;;;;;59.03;29.42;;;;;;;3.45;64.56;98178.53;5029574;28;20060;-74
2022/03/19 04:01:31;;;;;;;55.60;27.90;;;;;;;3.44;64.41;98179.56;5029332;28;20053;-74
2022/03/19 04:03:58;;;;;;;50.97;27.90;;;;;;;3.43;64.24;98181.44;5029628;28;20448;-74
2022/03/19 04:06:25;;;;;;;52.90;28.02;;;;;;;3.37;64.07;98169.69;5028516;28;20527;-74
2022/03/19 04:08:52;;;;;;;50.60;27.85;;;;;;;3.40;63.60;98174.66;5029271;28;20614;-74
2022/03/19 04:11:18;;;;;;;53.13;27.48;;;;;;;3.44;63.03;98168.78;5028735;28;20053;-75
2022/03/19 04:13:45;;;;;;;55.30;29.00;;;;;;;3.44;62.92;98174.16;5028929;28;20045;-74
2022/03/19 04:16:11;;;;;;;50.15;27.15;;;;;;;3.45;62.95;98170.44;5028713;28;20512;-74
2022/03/19 04:18:37;;;;;;;57.80;28.52;;;;;;;3.44;62.94;98174.16;5028443;28;20045;-74
2022/03/19 04:21:04;;;;;;;55.63;27.55;;;;;;;3.44;62.78;98171.47;5028941;28;20072;-74
2022/03/19 04:23:33;;;;;;;55.50;26.63;;;;;;;3.39;63.03;98167.63;5029497;28;20052;-74
2022/03/19 04:25:59;;;;;;;57.50;26.80;;;;;;;3.36;63.23;98161.84;5028993;28;20476;-74
2022/03/19 04:28:26;;;;;;;53.60;28.48;;;;;;;3.34;63.93;98170.16;5028281;28;20049;-74
2022/03/19 04:30:52;;;;;;;55.63;27.00;;;;;;;3.34;63.47;98162.09;5029023;28;20064;-74
2022/03/19 04:33:21;;;;;;;51.53;27.00;;;;;;;3.33;63.05;98168.50;5028927;28;20052;-74
2022/03/19 04:38:33;;;;;;;58.50;28.17;;;;;;;3.15;63.64;98157.78;5029260;28;20048;-74
2022/03/19 04:41:00;;;;;;;55.10;27.83;;;;;;;3.09;63.58;98158.69;5028775;28;20049;-75
2022/03/19 04:43:26;;;;;;;55.85;28.08;;;;;;;3.06;63.97;98159.94;5028155;28;20049;-74
2022/03/19 04:45:53;;;;;;;54.35;27.05;;;;;;;3.05;64.02;98157.47;5027654;28;20056;-74
2022/03/19 04:48:19;;;;;;;53.92;26.98;;;;;;;3.06;64.14;98159.13;5038775;28;20052;-74
2022/03/19 04:50:48;;;;;;;62.60;27.65;;;;;;;3.08;63.95;98151.63;5047979;28;20060;-74
2022/03/19 04:53:15;;;;;;;53.97;27.20;;;;;;;3.09;64.02;98161.38;5047723;28;20059;-74
2022/03/19 04:55:43;;;;;;;51.90;26.50;;;;;;;3.10;63.51;98152.25;5048641;28;20041;-74
2022/03/19 04:58:10;;;;;;;52.63;27.30;;;;;;;3.11;63.03;98153.88;5047384;28;20175;-74
2022/03/19 05:00:37;;;;;;;53.00;26.48;;;;;;;3.08;63.06;98165.94;5048837;28;20052;-74
2022/03/19 05:03:03;;;;;;;49.75;25.55;;;;;;;3.08;63.28;98159.72;5047518;28;20132;-74
2022/03/19 05:05:29;;;;;;;47.88;24.70;;;;;;;3.07;63.48;98152.69;5048494;28;20045;-74
2022/03/19 05:07:56;;;;;;;50.67;26.00;;;;;;;3.06;63.51;98151.03;5047628;28;20056;-74
2022/03/19 05:13:09;;;;;;;48.85;26.35;;;;;;;3.02;63.28;98152.53;5047587;28;20155;-74
2022/03/19 05:15:36;;;;;;;46.70;25.13;;;;;;;3.03;62.80;98152.34;5047514;28;20052;-74
2022/03/19 05:18:03;;;;;;;47.67;25.20;;;;;;;3.03;62.84;98151.50;5047875;28;20052;-74
2022/03/19 05:20:30;;;;;;;46.47;24.73;;;;;;;3.03;62.45;98151.50;5047444;28;20048;-75
2022/03/19 05:22:56;;;;;;;47.47;26.10;;;;;;;3.02;61.82;98155.22;5048662;28;20049;-74
2022/03/19 05:25:22;;;;;;;48.30;25.00;;;;;;;3.01;61.89;98148.22;5046964;28;20055;-74
2022/03/19 05:27:49;;;;;;;48.22;25.80;;;;;;;3.00;61.87;98152.78;5048124;28;20056;-74
2022/03/19 05:30:17;;;;;;;46.83;24.27;;;;;;;2.99;61.95;98147.63;5046864;28;20500;-74
2022/03/19 05:32:44;;;;;;;45.67;24.25;;;;;;;2.96;61.85;98135.44;5048365;28;20053;-74
2022/03/19 05:35:11;;;;;;;52.88;25.30;;;;;;;2.93;61.96;98138.59;5047185;28;20048;-74
2022/03/19 05:37:37;;;;;;;46.88;25.20;;;;;;;2.93;61.81;98140.47;5047844;28;20041;-74
2022/03/19 05:40:05;;;;;;;48.72;24.45;;;;;;;2.88;61.86;98139.25;5047644;28;20052;-74
2022/03/19 05:42:32;;;;;;;50.95;24.00;;;;;;;2.89;61.66;98142.75;5047468;28;20048;-74
2022/03/19 05:44:58;;;;;;;43.05;24.23;;;;;;;2.88;61.57;98139.25;5048058;28;20135;-74
2022/03/19 05:47:26;;;;;;;46.80;23.70;;;;;;;2.91;61.68;98137.16;5046269;28;20056;-74
2022/03/19 05:49:53;;;;;;;44.33;23.20;;;;;;;2.91;61.33;98131.78;5048196;28;20056;-75
2022/03/19 05:52:19;;;;;;;46.45;24.23;;;;;;;2.93;61.03;98140.47;5046356;28;20044;-74
2022/03/19 05:54:46;;;;;;;51.42;24.35;;;;;;;2.94;60.96;98142.09;5047638;28;20045;-74
2022/03/19 05:57:12;;;;;;;51.70;27.35;;;;;;;2.95;61.16;98144.56;5045388;28;20053;-74
2022/03/19 05:59:39;;;;;;;47.42;24.77;;;;;;;2.94;62.03;98147.47;5047458;28;20065;-75
2022/03/19 06:02:06;;;;;;;42.50;23.73;;;;;;;2.94;62.49;98142.09;5046747;28;20049;-74
2022/03/19 06:04:35;;;;;;;48.00;25.45;;;;;;;2.96;62.28;98138.13;5047103;28;20687;-74
2022/03/19 06:07:02;;;;;;;47.47;24.40;;;;;;;2.95;62.06;98138.34;5047498;28;20064;-74
2022/03/19 06:09:28;;;;;;;43.13;24.40;;;;;;;2.98;61.98;98137.91;5046506;28;20052;-74
2022/03/19 06:11:54;;;;;;;40.60;23.63;;;;;;;3.01;62.13;98134.75;5047631;28;20049;-74
2022/03/19 06:14:21;;;;;;;43.28;23.20;;;;;;;3.05;62.14;98138.63;5045792;28;20049;-74
2022/03/19 06:16:49;;;;;;;44.60;25.10;;;;;;;3.05;62.17;98135.94;5047025;28;20052;-74
2022/03/19 06:19:15;;;;;;;43.55;23.42;;;;;;;3.04;62.21;98132.44;5045903;28;20131;-74
2022/03/19 06:21:43;;;;;;;47.47;23.25;;;;;;;3.08;62.33;98132.78;5047068;28;20045;-74
2022/03/19 06:24:10;;;;;;;42.42;22.90;;;;;;;3.12;62.43;98128.59;5046627;28;20432;-74
2022/03/19 06:26:37;;;;;;;44.50;23.42;;;;;;;3.20;62.87;98125.63;5046508;28;20095;-74
2022/03/19 06:29:04;;;;;;;43.67;22.67;;;;;;;3.26;62.54;98122.00;5046640;28;20044;-74
2022/03/19 06:31:30;;;;;;;47.60;23.83;;;;;;;3.34;62.04;98127.09;5046944;28;20503;-74
2022/03/19 06:33:57;;;;;;;42.15;22.88;;;;;;;3.38;61.97;98122.03;5047242;28;20557;-74
2022/03/19 06:39:09;;;;;;;42.17;22.80;;;;;;;3.54;62.36;98125.97;5047183;28;20079;-73
2022/03/19 06:41:35;;;;;;;42.05;21.77;;;;;;;3.57;61.97;98115.56;5046297;28;20052;-75
2022/03/19 06:44:02;;;;;;;46.80;22.55;;;;;;;3.56;59.74;98123.88;5046325;28;20063;-76
2022/03/19 06:46:28;;;;;;;41.72;20.20;;;;;;;3.66;59.67;98119.56;5046213;28;20052;-76
2022/03/19 06:48:55;;;;;;;34.50;19.92;;;;;;;3.77;59.28;98115.25;5046488;28;20114;-76
2022/03/19 06:51:22;;;;;;;40.75;21.80;;;;;;;3.88;59.10;98106.38;5045907;28;20067;-76
2022/03/19 06:53:49;;;;;;;34.35;19.38;;;;;;;3.99;57.98;98101.25;5045788;28;20507;-77
2022/03/19 06:56:18;;;;;;;36.55;19.63;;;;;;;4.11;57.94;98110.16;5046003;28;20053;-77
2022/03/19 06:58:44;;;;;;;36.25;19.58;;;;;;;4.21;57.30;98110.38;5014398;28;20062;-76
2022/03/19 07:01:15;;;;;;;40.28;19.60;;;;;;;4.26;56.75;98113.19;5042867;28;20698;-76
2022/03/19 07:03:42;;;;;;;37.17;20.42;;;;;;;4.34;56.61;98115.56;5046341;28;20135;-76
2022/03/19 07:06:08;;;;;;;37.30;20.02;;;;;;;4.44;56.49;98107.69;5045726;28;20078;-76
2022/03/19 07:08:35;;;;;;;39.15;20.35;;;;;;;4.54;55.80;98108.97;5048323;28;20047;-75
2022/03/19 07:11:01;;;;;;;34.53;19.88;;;;;;;4.74;56.30;98104.00;5050343;28;20080;-76
2022/03/19 07:13:29;;;;;;;35.63;19.13;;;;;;;5.28;54.74;98098.34;5050335;28;20075;-75
2022/03/19 07:15:56;;;;;;;35.47;19.20;;;;;;;5.46;53.16;98101.66;5044618;28;20054;-75
2022/03/19 07:18:23;;;;;;;34.83;19.48;;;;;;;5.40;52.21;98102.63;5030571;28;20416;-75
2022/03/19 07:20:50;;;;;;;39.05;20.85;;;;;;;5.54;55.60;98102.34;5029576;28;20049;-75
2022/03/19 07:23:16;;;;;;;38.63;19.65;;;;;;;5.95;52.38;98093.91;5030436;28;20128;-75
2022/03/19 07:25:44;;;;;;;36.58;20.17;;;;;;;6.42;52.20;98103.53;5029593;28;20053;-75
2022/03/19 07:28:12;;;;;;;41.08;19.42;;;;;;;7.03;49.57;98094.34;5029952;28;20083;-77
2022/03/19 07:30:40;;;;;;;35.00;18.38;;;;;;;7.45;48.60;98088.31;5029785;28;20467;-76
2022/03/19 07:33:08;;;;;;;33.58;18.55;;;;;;;7.77;47.93;98092.94;5029565;28;20053;-75
2022/03/19 07:35:35;;;;;;;31.52;18.33;;;;;;;8.08;46.02;98094.84;5027768;28;20060;-75
2022/03/19 07:38:02;;;;;;;32.03;19.00;;;;;;;8.39;46.85;98084.25;5029360;28;20056;-76
2022/03/19 07:43:14;;;;;;;33.13;18.20;;;;;;;9.11;44.84;98083.53;5030059;28;20056;-75
2022/03/19 07:45:43;;;;;;;29.35;18.13;;;;;;;9.45;42.82;98083.13;5029732;28;20497;-74
2022/03/19 07:48:11;;;;;;;35.13;18.88;;;;;;;9.65;45.11;98087.75;5028829;28;20057;-74
2022/03/19 07:50:38;;;;;;;32.60;18.15;;;;;;;9.72;41.22;98079.38;5029796;28;20726;-74
2022/03/19 07:53:06;;;;;;;34.50;18.48;;;;;;;9.71;41.14;98078.56;5029300;28;20703;-74
2022/03/19 07:55:33;;;;;;;33.33;18.40;;;;;;;9.93;41.22;98064.69;5028687;28;20045;-74
2022/03/19 07:58:00;;;;;;;35.58;17.48;;;;;;;9.96;40.20;98069.56;5029914;28;20056;-74
2022/03/19 08:00:27;;;;;;;28.55;17.33;;;;;;;10.28;39.43;98063.84;5028791;28;21245;-73
2022/03/19 08:02:55;;;;;;;28.58;17.05;;;;;;;10.66;37.23;98065.16;5030186;28;20813;-74
2022/03/19 08:05:21;;;;;;;29.48;17.20;;;;;;;11.12;37.01;98059.56;5028210;28;20049;-74
2022/03/19 08:07:48;;;;;;;30.73;16.85;;;;;;;11.51;35.45;98058.78;5029944;28;20543;-75
2022/03/19 08:10:15;;;;;;;33.63;17.13;;;;;;;11.81;35.44;98056.97;5028178;28;20053;-74
2022/03/19 08:12:43;;;;;;;28.27;17.10;;;;;;;11.89;33.07;98048.19;5029580;28;20751;-72
2022/03/19 08:15:11;;;;;;;28.23;16.60;;;;;;;12.04;33.93;98042.59;5027508;28;20511;-72
2022/03/19 08:17:38;;;;;;;26.88;15.90;;;;;;;12.30;33.54;98047.84;5028588;28;20057;-72
2022/03/19 08:20:07;;;;;;;27.95;15.55;;;;;;;12.70;31.18;98041.97;5027475;28;20611;-72
2022/03/19 08:22:34;;;;;;;24.38;15.45;;;;;;;13.05;31.00;98035.28;5029162;28;20058;-72
2022/03/19 08:25:02;;;;;;;25.95;15.82;;;;;;;13.27;32.34;98039.41;5028336;28;20103;-73
2022/03/19 08:27:28;;;;;;;24.85;15.32;;;;;;;13.52;30.42;98035.47;5027057;28;20736;-72
2022/03/19 08:29:55;;;;;;;25.10;14.85;;;;;;;13.75;29.17;98037.31;5029534;28;20045;-73
2022/03/19 08:32:22;;;;;;;22.40;13.32;;;;;;;13.76;27.86;98032.66;5028199;28;20060;-74
2022/03/19 08:34:49;;;;;;;27.67;14.05;;;;;;;13.81;27.45;98036.13;5029326;28;20069;-72
2022/03/19 08:37:17;;;;;;;20.45;14.07;;;;;;;13.75;26.62;98031.84;5028231;28;20119;-72
2022/03/19 08:42:27;;;;;;;21.77;13.27;;;;;;;13.52;27.29;98038.19;5029440;28;20594;-74
2022/03/19 08:44:56;;;;;;;21.15;13.35;;;;;;;13.69;26.61;98032.22;5028561;28;20049;-74
2022/03/19 08:47:22;;;;;;;21.85;13.88;;;;;;;13.90;27.98;98021.78;5028738;28;20053;-72
2022/03/19 08:49:49;;;;;;;22.35;12.77;;;;;;;13.97;27.78;98027.66;5028554;28;20068;-72
2022/03/19 08:52:16;;;;;;;19.30;12.80;;;;;;;14.08;26.23;98029.94;5028862;28;20049;-72
2022/03/19 08:54:43;;;;;;;18.42;12.45;;;;;;;14.08;24.97;98027.19;5028592;28;20046;-72
2022/03/19 08:57:11;;;;;;;21.17;12.93;;;;;;;14.36;25.78;98030.03;5028232;28;20045;-72
2022/03/19 08:59:38;;;;;;;21.83;13.68;;;;;;;14.22;25.42;98023.69;5028457;28;20163;-72
2022/03/19 09:02:05;;;;;;;19.38;12.65;;;;;;;14.26;25.35;98019.25;5028126;28;20076;-72
2022/03/19 09:04:32;;;;;;;22.15;12.95;;;;;;;14.22;26.54;98013.53;5028902;28;20046;-72
2022/03/19 09:06:58;;;;;;;21.30;12.98;;;;;;;14.54;25.17;98009.16;5027907;28;20084;-72
2022/03/19 09:09:26;;;;;;;22.65;12.90;;;;;;;14.64;25.18;98013.63;5028517;28;20500;-72
2022/03/19 09:11:53;;;;;;;22.40;12.57;;;;;;;14.50;24.08;98005.38;5027681;28;20054;-72
2022/03/19 09:14:20;;;;;;;18.13;12.18;;;;;;;14.35;24.92;98004.53;5028476;28;20045;-72
2022/03/19 09:16:47;;;;;;;19.52;12.20;;;;;;;13.99;24.60;97998.03;5028042;28;20054;-72
2022/03/19 09:19:13;;;;;;;19.80;12.45;;;;;;;13.99;25.56;97998.03;5034595;28;20049;-73
2022/03/19 09:21:40;;;;;;;21.52;13.98;;;;;;;14.07;26.44;97992.69;5047637;28;20710;-73
2022/03/19 09:24:07;;;;;;;20.35;13.40;;;;;;;14.15;26.03;97996.69;5047645;28;20444;-73
2022/03/19 09:26:34;;;;;;;19.02;12.60;;;;;;;13.90;26.44;97988.91;5048059;28;20048;-73
2022/03/19 09:29:01;;;;;;;21.73;12.52;;;;;;;13.34;26.95;97987.03;5048249;28;20926;-73
2022/03/19 09:31:28;;;;;;;20.67;13.25;;;;;;;13.01;27.73;97971.31;5046752;28;20049;-72
2022/03/19 09:33:54;;;;;;;23.55;14.07;;;;;;;12.98;26.99;97968.34;5047456;28;20616;-74
2022/03/19 09:36:21;;;;;;;23.23;12.65;;;;;;;12.83;26.88;97966.63;5048153;28;20049;-72
2022/03/19 09:38:47;;;;;;;19.13;12.38;;;;;;;12.78;28.46;97969.44;5033727;28;20500;-72
2022/03/19 09:41:14;;;;;;;22.05;13.05;;;;;;;13.06;28.36;97967.72;5028273;28;20071;-72
2022/03/19 09:43:42;;;;;;;20.05;13.73;;;;;;;13.16;26.94;97964.84;5027743;28;20061;-72
2022/03/19 09:46:09;;;;;;;24.55;12.80;;;;;;;13.32;27.75;97958.06;5028003;28;20056;-72
2022/03/19 09:48:35;;;;;;;21.15;12.85;;;;;;;13.21;27.47;97956.59;5028271;28;20057;-72
2022/03/19 09:51:04;;;;;;;22.60;13.20;;;;;;;13.27;27.96;97952.66;5026727;28;20053;-72
2022/03/19 09:53:31;;;;;;;21.42;11.45;;;;;;;13.29;24.21;97953.16;5027578;28;20069;-73
2022/03/19 09:55:57;;;;;;;19.52;11.98;;;;;;;13.22;25.83;97952.72;5027125;28;20478;-73
2022/03/19 09:58:24;;;;;;;17.77;10.57;;;;;;;13.26;24.60;97942.84;5027250;28;20061;-74
2022/03/19 10:00:52;;;;;;;16.83;11.45;;;;;;;13.27;25.41;97938.97;5026980;28;20049;-73
2022/03/19 10:03:22;;;;;;;24.70;12.38;;;;;;;13.38;25.90;97930.63;5027558;28;20056;-73
2022/03/19 10:08:39;;;;;;;17.73;11.30;;;;;;;13.93;24.10;97925.31;5041223;28;20407;-73
2022/03/19 10:11:08;;;;;;;15.95;10.80;;;;;;;14.20;24.13;97921.78;5046761;28;20604;-73
2022/03/19 10:13:38;;;;;;;17.67;11.85;;;;;;;14.17;23.10;97928.69;5046968;28;20055;-73
2022/03/19 10:16:06;;;;;;;17.92;11.30;;;;;;;14.00;23.60;97917.53;5046481;28;20068;-72
2022/03/19 10:18:33;;;;;;;17.92;11.52;;;;;;;13.88;23.71;97919.91;5045384;28;20124;-73
2022/03/19 10:21:02;;;;;;;18.38;11.23;;;;;;;13.89;23.65;97913.34;5027414;28;20056;-73
2022/03/19 10:23:33;;;;;;;21.60;12.45;;;;;;;13.91;23.89;97911.94;5026630;28;20528;-74
2022/03/19 10:25:59;;;;;;;17.27;10.93;;;;;;;13.94;23.59;97918.72;5027148;28;20087;-73
2022/03/19 10:28:30;;;;;;;18.52;10.32;;;;;;;13.83;22.81;97912.59;5025673;28;20426;-73
2022/03/19 10:30:56;;;;;;;15.45;10.90;;;;;;;13.69;23.66;97900.81;5026931;28;20051;-74
2022/03/19 10:33:27;;;;;;;16.35;10.65;;;;;;;13.65;23.07;97897.88;5026542;28;20057;-73
2022/03/19 10:36:06;;;;;;;18.27;10.80;;;;;;;13.35;23.72;97901.09;5026560;28;20507;-74
2022/03/19 10:38:42;;;;;;;18.02;10.35;;;;;;;13.30;23.64;97888.31;5027385;28;20130;-73
2022/03/19 10:41:08;;;;;;;20.35;10.38;;;;;;;13.30;23.49;97894.59;5025904;28;20073;-73
2022/03/19 10:43:35;;;;;;;18.88;11.50;;;;;;;13.27;24.46;97881.53;5027172;28;20168;-73
2022/03/19 10:46:03;;;;;;;14.55;9.98;;;;;;;13.37;25.65;97871.53;5026224;28;20424;-73
2022/03/19 10:48:32;;;;;;;17.08;10.90;;;;;;;13.42;25.61;97863.25;5026543;28;20044;-73
2022/03/19 10:50:59;;;;;;;17.85;11.35;;;;;;;13.31;26.10;97852.47;5026734;28;20061;-73
2022/03/19 10:53:27;;;;;;;16.67;11.85;;;;;;;13.29;27.55;97849.22;5026351;28;20666;-73
2022/03/19 10:55:54;;;;;;;20.58;12.13;;;;;;;13.27;26.57;97843.25;5025431;28;20438;-73
2022/03/19 10:58:21;;;;;;;21.15;11.43;;;;;;;13.26;25.76;97832.59;5025205;28;20085;-72
2022/03/19 11:00:51;;;;;;;16.17;10.82;;;;;;;13.25;24.09;97839.97;5027001;28;20045;-72
2022/03/19 11:03:20;;;;;;;24.50;11.23;;;;;;;13.39;25.54;97831.00;5025565;28;20065;-73
2022/03/19 11:05:50;;;;;;;16.48;11.48;;;;;;;13.44;26.86;97829.00;5027089;28;20055;-73
2022/03/19 11:08:20;;;;;;;17.48;11.20;;;;;;;13.42;25.94;97827.69;5026039;28;20087;-72
2022/03/19 11:10:50;;;;;;;17.40;10.55;;;;;;;13.48;24.95;97823.75;5026954;28;20049;-73
2022/03/19 11:13:21;;;;;;;19.48;12.52;;;;;;;13.46;25.40;97821.28;5025797;28;20050;-75
2022/03/19 11:15:51;;;;;;;28.70;16.83;;;;;;;13.18;24.19;97814.91;5026168;28;20547;-75
2022/03/19 11:18:21;;;;;;;16.65;12.07;;;;;;;13.29;22.39;97810.91;5024999;28;20076;-76
2022/03/19 11:20:49;;;;;;;22.30;19.17;;;;;;;13.48;22.45;97813.59;5025640;28;20073;-76
2022/03/19 11:23:19;;;;;;;14.25;9.10;;;;;;;13.62;23.20;97813.59;5033595;28;20072;-75
2022/03/19 11:25:52;;;;;;;16.08;10.27;;;;;;;13.74;22.39;97816.69;5024673;28;20456;-76
2022/03/19 11:28:20;;;;;;;14.98;10.02;;;;;;;13.73;24.10;97806.00;5043554;28;20049;-76
2022/03/19 11:31:00;;;;;;;14.18;10.18;;;;;;;13.90;23.81;97791.75;5036719;28;20053;-75
2022/03/19 11:33:30;;;;;;;16.63;10.48;;;;;;;14.09;22.56;97792.44;5028611;28;20145;-75
2022/03/19 11:36:08;;;;;;;14.80;9.95;;;;;;;14.11;23.47;97787.47;5030752;28;20048;-75
2022/03/19 11:38:41;;;;;;;17.67;10.95;;;;;;;14.17;23.60;97780.75;5026506;28;20061;-77